Maria — SV7156 — position and weather

sailwx.info

Track history (hours):
 
Tides and Currents Weather Stations Pressure Air Temp Water Temp Dewpoint Dewpoint Depression Visibility Wind Speed Wind Dir Waves Ship Positions

Maria

Last reported at 2014-Nov-21 20:33 UTC. Time now 2014-Nov-21 20:40 UTC.
Position N 38°02' E 023°36'.

Length 74 m; draft 4.5 m.

Type: Ship. MMSI: 237493000.

Date/timePositionNaut miles runAvg speedWind from/ knotsBaromVisibWave heightAir tempDewpointWater temp
2014-Nov-21 20:33N 38°02' E 023°36'0 0.0
2014-Nov-21 19:33N 38°02' E 023°36'0 0.0
2014-Nov-21 18:33N 38°02' E 023°36'4 3.7
2014-Nov-21 17:33N 37°59' E 023°33'5 5.4
2014-Nov-21 16:33N 37°53' E 023°33'0 0.0
2014-Nov-21 15:33N 37°53' E 023°33'1 0.5
2014-Nov-21 14:33N 37°54' E 023°33'4 4.2
2014-Nov-21 13:33N 37°57' E 023°36'0 0.0
2014-Nov-21 12:33N 37°57' E 023°36'0 0.0
2014-Nov-21 11:33N 37°57' E 023°36'0 0.0
2014-Nov-21 10:33N 37°57' E 023°36'0 0.0
2014-Nov-21 09:33N 37°57' E 023°36'0 0.0
2014-Nov-21 08:33N 37°57' E 023°36'0 0.0
2014-Nov-21 07:34N 37°57' E 023°36'1 0.1
2014-Nov-20 23:04N 37°58' E 023°35'3 4.9
2014-Nov-20 22:33N 37°55' E 023°34'2 2.3
2014-Nov-20 21:33N 37°53' E 023°33'0 0.0
2014-Nov-20 20:33N 37°53' E 023°33'0 0.0
2014-Nov-20 19:33N 37°53' E 023°33'0 0.0
2014-Nov-20 18:33N 37°53' E 023°33'0 0.1
2014-Nov-20 17:33N 37°53' E 023°33'4 4.2
2014-Nov-20 16:33N 37°57' E 023°35'1 0.9
2014-Nov-20 15:33N 37°57' E 023°36'0 0.0
2014-Nov-20 14:33N 37°57' E 023°36'0 0.0
2014-Nov-20 13:33N 37°57' E 023°36'1 0.2
2014-Nov-20 07:33N 37°58' E 023°35'0 0.0
2014-Nov-20 06:12N 37°58' E 023°35'4 0.8
2014-Nov-20 01:16N 38°01' E 023°35'0 0.0
2014-Nov-20 00:34N 38°01' E 023°35'0 0.0
2014-Nov-19 23:33N 38°01' E 023°35'1 0.8
2014-Nov-19 22:33N 38°02' E 023°36'0 0.0
2014-Nov-19 20:06N 38°02' E 023°36'0 0.0
2014-Nov-19 19:33N 38°02' E 023°36'0 0.1
2014-Nov-19 18:33N 38°02' E 023°36'6 6.5
2014-Nov-19 17:33N 38°00' E 023°28'8 5.8
2014-Nov-19 16:14N 37°53' E 023°23'5 6.9
2014-Nov-19 15:33N 37°52' E 023°29'1 1.1
2014-Nov-19 14:33N 37°51' E 023°30'0 0.0
2014-Nov-19 13:33N 37°51' E 023°30'0 0.0
2014-Nov-19 12:33N 37°51' E 023°30'0 0.0
2014-Nov-19 11:33N 37°51' E 023°30'0 0.0
2014-Nov-19 10:32N 37°51' E 023°30'0 0.0
2014-Nov-19 09:31N 37°51' E 023°30'0 0.0
2014-Nov-19 08:32N 37°51' E 023°30'0 0.0
2014-Nov-19 07:33N 37°51' E 023°30'2 2.1
2014-Nov-19 06:33N 37°53' E 023°32'5 5.3
2014-Nov-19 05:34N 37°58' E 023°35'0 0.0
2014-Nov-18 19:11N 37°58' E 023°35'4 5.6
2014-Nov-18 18:33N 37°54' E 023°34'2 2.3
2014-Nov-18 17:33N 37°52' E 023°32'0 0.0
2014-Nov-18 16:33N 37°52' E 023°32'0 0.0
2014-Nov-18 15:33N 37°52' E 023°32'4 4.1
2014-Nov-18 14:33N 37°56' E 023°34'6 1.5
2014-Nov-18 10:30N 38°02' E 023°36'0 0.0
2014-Nov-18 09:33N 38°02' E 023°36'1 0.7
2014-Nov-18 08:33N 38°02' E 023°35'3 2.6
2014-Nov-18 07:33N 37°59' E 023°33'4 0.5
2014-Nov-17 22:34N 37°55' E 023°34'5 4.7
2014-Nov-17 21:34N 37°51' E 023°31'0 0.0
2014-Nov-17 20:33N 37°51' E 023°31'0 0.1
2014-Nov-17 19:34N 37°51' E 023°31'0 0.0
2014-Nov-17 18:34N 37°51' E 023°31'0 0.1
2014-Nov-17 17:33N 37°51' E 023°31'0 0.0
2014-Nov-17 16:34N 37°51' E 023°31'0 0.1
2014-Nov-17 15:34N 37°51' E 023°31'0 0.0
2014-Nov-17 14:34N 37°51' E 023°31'0 0.1
2014-Nov-17 13:34N 37°51' E 023°31'1 1.4
2014-Nov-17 12:34N 37°52' E 023°32'6 5.9
2014-Nov-17 11:34N 37°58' E 023°35'0 0.0
2014-Nov-17 10:34N 37°58' E 023°35'0 0.0
2014-Nov-17 09:34N 37°58' E 023°35'0 0.5
2014-Nov-17 08:34N 37°57' E 023°35'0 0.0
2014-Nov-17 07:33N 37°57' E 023°35'2 0.1
2014-Nov-16 07:33N 37°58' E 023°33'4 3.8
2014-Nov-16 06:33N 38°01' E 023°34'0 0.0
2014-Nov-16 05:33N 38°01' E 023°34'1 1.2
2014-Nov-16 04:33N 38°02' E 023°36'0 0.0
2014-Nov-16 03:33N 38°02' E 023°36'0 0.0
2014-Nov-16 02:33N 38°02' E 023°36'0 0.0
2014-Nov-16 01:33N 38°02' E 023°36'0 0.0
2014-Nov-16 00:33N 38°02' E 023°36'0 0.0
2014-Nov-15 23:33N 38°02' E 023°36'0 0.0
2014-Nov-15 22:33N 38°02' E 023°36'0 0.0
2014-Nov-15 21:33N 38°02' E 023°36'1 0.8
2014-Nov-15 20:33N 38°01' E 023°35'0 0.0
2014-Nov-15 19:32N 38°01' E 023°35'0 0.0
2014-Nov-15 18:33N 38°01' E 023°35'0 0.0
2014-Nov-15 17:33N 38°01' E 023°35'0 0.0
2014-Nov-15 16:33N 38°01' E 023°35'4 3.9
2014-Nov-15 15:33N 37°57' E 023°35'0 0.0
2014-Nov-15 09:34N 37°58' E 023°35'1 1.0
2014-Nov-15 08:34N 37°57' E 023°36'0 0.0
2014-Nov-15 07:34N 37°57' E 023°36'1 0.1
2014-Nov-14 16:26N 37°58' E 023°35'2 2.7
2014-Nov-14 15:33N 37°55' E 023°34'0 0.0
2014-Nov-14 14:33N 37°55' E 023°34'0 0.2
2014-Nov-14 12:34N 37°55' E 023°34'0 0.0
2014-Nov-14 11:33N 37°55' E 023°34'1 0.7
2014-Nov-14 10:33N 37°55' E 023°33'1 0.6
2014-Nov-14 09:33N 37°55' E 023°34'2 0.2
2014-Nov-13 18:33N 37°58' E 023°35'1 1.3
2014-Nov-13 17:29N 37°58' E 023°36'0 0.0
2014-Nov-13 16:16N 37°58' E 023°36'0 0.0
2014-Nov-13 14:26N 37°58' E 023°36'0 0.0
2014-Nov-13 13:24N 37°58' E 023°36'0 0.0
2014-Nov-13 12:33N 37°58' E 023°36'0 0.0
2014-Nov-13 11:34N 37°58' E 023°36'1 1.1
2014-Nov-13 10:18N 37°58' E 023°35'0 0.0
2014-Nov-13 09:33N 37°58' E 023°35'0 0.0
2014-Nov-13 08:33N 37°58' E 023°35'0 0.0
2014-Nov-13 07:13N 37°58' E 023°35'0 0.0
2014-Nov-13 06:33N 37°58' E 023°35'4 2.7
2014-Nov-13 05:09N 38°01' E 023°35'0 0.0
2014-Nov-13 03:26N 38°01' E 023°35'0 0.0
2014-Nov-13 01:26N 38°01' E 023°35'1 1.0
2014-Nov-13 00:33N 38°02' E 023°36'0 0.0
2014-Nov-12 17:31N 38°02' E 023°36'1 0.8
2014-Nov-12 16:33N 38°01' E 023°35'0 0.1
2014-Nov-12 15:33N 38°02' E 023°35'0 0.4
2014-Nov-12 14:33N 38°02' E 023°35'4 4.4
2014-Nov-12 13:33N 37°57' E 023°34'1 0.7
2014-Nov-12 12:33N 37°57' E 023°35'0 0.0
2014-Nov-12 11:33N 37°57' E 023°35'0 0.0
2014-Nov-12 10:33N 37°57' E 023°35'0 0.0
2014-Nov-12 09:33N 37°57' E 023°35'0 0.0
2014-Nov-12 08:32N 37°57' E 023°35'  
Track history (hours):
 
Tides and Currents Weather Stations Pressure Air Temp Water Temp Dewpoint Dewpoint Depression Visibility Wind Speed Wind Dir Waves Ship Positions

Maria

Last reported at 2014-Nov-21 20:33 UTC. Time now 2014-Nov-21 20:40 UTC.
Position N 38°02' E 023°36'.

Length 74 m; draft 4.5 m.

Type: Ship. MMSI: 237493000.

Date/timePositionNaut miles runAvg speedWind from/ knotsBaromVisibWave heightAir tempDewpointWater temp
2014-Nov-21 20:33N 38°02' E 023°36'0 0.0
2014-Nov-21 19:33N 38°02' E 023°36'0 0.0
2014-Nov-21 18:33N 38°02' E 023°36'4 3.7
2014-Nov-21 17:33N 37°59' E 023°33'5 5.4
2014-Nov-21 16:33N 37°53' E 023°33'0 0.0
2014-Nov-21 15:33N 37°53' E 023°33'1 0.5
2014-Nov-21 14:33N 37°54' E 023°33'4 4.2
2014-Nov-21 13:33N 37°57' E 023°36'0 0.0
2014-Nov-21 12:33N 37°57' E 023°36'0 0.0
2014-Nov-21 11:33N 37°57' E 023°36'0 0.0
2014-Nov-21 10:33N 37°57' E 023°36'0 0.0
2014-Nov-21 09:33N 37°57' E 023°36'0 0.0
2014-Nov-21 08:33N 37°57' E 023°36'0 0.0
2014-Nov-21 07:34N 37°57' E 023°36'1 0.1
2014-Nov-20 23:04N 37°58' E 023°35'3 4.9
2014-Nov-20 22:33N 37°55' E 023°34'2 2.3
2014-Nov-20 21:33N 37°53' E 023°33'0 0.0
2014-Nov-20 20:33N 37°53' E 023°33'0 0.0
2014-Nov-20 19:33N 37°53' E 023°33'0 0.0
2014-Nov-20 18:33N 37°53' E 023°33'0 0.1
2014-Nov-20 17:33N 37°53' E 023°33'4 4.2
2014-Nov-20 16:33N 37°57' E 023°35'1 0.9
2014-Nov-20 15:33N 37°57' E 023°36'0 0.0
2014-Nov-20 14:33N 37°57' E 023°36'0 0.0
2014-Nov-20 13:33N 37°57' E 023°36'1 0.2
2014-Nov-20 07:33N 37°58' E 023°35'0 0.0
2014-Nov-20 06:12N 37°58' E 023°35'4 0.8
2014-Nov-20 01:16N 38°01' E 023°35'0 0.0
2014-Nov-20 00:34N 38°01' E 023°35'0 0.0
2014-Nov-19 23:33N 38°01' E 023°35'1 0.8
2014-Nov-19 22:33N 38°02' E 023°36'0 0.0
2014-Nov-19 20:06N 38°02' E 023°36'0 0.0
2014-Nov-19 19:33N 38°02' E 023°36'0 0.1
2014-Nov-19 18:33N 38°02' E 023°36'6 6.5
2014-Nov-19 17:33N 38°00' E 023°28'8 5.8
2014-Nov-19 16:14N 37°53' E 023°23'5 6.9
2014-Nov-19 15:33N 37°52' E 023°29'1 1.1
2014-Nov-19 14:33N 37°51' E 023°30'0 0.0
2014-Nov-19 13:33N 37°51' E 023°30'0 0.0
2014-Nov-19 12:33N 37°51' E 023°30'0 0.0
2014-Nov-19 11:33N 37°51' E 023°30'0 0.0
2014-Nov-19 10:32N 37°51' E 023°30'0 0.0
2014-Nov-19 09:31N 37°51' E 023°30'0 0.0
2014-Nov-19 08:32N 37°51' E 023°30'0 0.0
2014-Nov-19 07:33N 37°51' E 023°30'2 2.1
2014-Nov-19 06:33N 37°53' E 023°32'5 5.3
2014-Nov-19 05:34N 37°58' E 023°35'0 0.0
2014-Nov-18 19:11N 37°58' E 023°35'4 5.6
2014-Nov-18 18:33N 37°54' E 023°34'2 2.3
2014-Nov-18 17:33N 37°52' E 023°32'0 0.0
2014-Nov-18 16:33N 37°52' E 023°32'0 0.0
2014-Nov-18 15:33N 37°52' E 023°32'4 4.1
2014-Nov-18 14:33N 37°56' E 023°34'6 1.5
2014-Nov-18 10:30N 38°02' E 023°36'0 0.0
2014-Nov-18 09:33N 38°02' E 023°36'1 0.7
2014-Nov-18 08:33N 38°02' E 023°35'3 2.6
2014-Nov-18 07:33N 37°59' E 023°33'4 0.5
2014-Nov-17 22:34N 37°55' E 023°34'5 4.7
2014-Nov-17 21:34N 37°51' E 023°31'0 0.0
2014-Nov-17 20:33N 37°51' E 023°31'0 0.1
2014-Nov-17 19:34N 37°51' E 023°31'0 0.0
2014-Nov-17 18:34N 37°51' E 023°31'0 0.1
2014-Nov-17 17:33N 37°51' E 023°31'0 0.0
2014-Nov-17 16:34N 37°51' E 023°31'0 0.1
2014-Nov-17 15:34N 37°51' E 023°31'0 0.0
2014-Nov-17 14:34N 37°51' E 023°31'0 0.1
2014-Nov-17 13:34N 37°51' E 023°31'1 1.4
2014-Nov-17 12:34N 37°52' E 023°32'6 5.9
2014-Nov-17 11:34N 37°58' E 023°35'0 0.0
2014-Nov-17 10:34N 37°58' E 023°35'0 0.0
2014-Nov-17 09:34N 37°58' E 023°35'0 0.5
2014-Nov-17 08:34N 37°57' E 023°35'0 0.0
2014-Nov-17 07:33N 37°57' E 023°35'2 0.1
2014-Nov-16 07:33N 37°58' E 023°33'4 3.8
2014-Nov-16 06:33N 38°01' E 023°34'0 0.0
2014-Nov-16 05:33N 38°01' E 023°34'1 1.2
2014-Nov-16 04:33N 38°02' E 023°36'0 0.0
2014-Nov-16 03:33N 38°02' E 023°36'0 0.0
2014-Nov-16 02:33N 38°02' E 023°36'0 0.0
2014-Nov-16 01:33N 38°02' E 023°36'0 0.0
2014-Nov-16 00:33N 38°02' E 023°36'0 0.0
2014-Nov-15 23:33N 38°02' E 023°36'0 0.0
2014-Nov-15 22:33N 38°02' E 023°36'0 0.0
2014-Nov-15 21:33N 38°02' E 023°36'1 0.8
2014-Nov-15 20:33N 38°01' E 023°35'0 0.0
2014-Nov-15 19:32N 38°01' E 023°35'0 0.0
2014-Nov-15 18:33N 38°01' E 023°35'0 0.0
2014-Nov-15 17:33N 38°01' E 023°35'0 0.0
2014-Nov-15 16:33N 38°01' E 023°35'4 3.9
2014-Nov-15 15:33N 37°57' E 023°35'0 0.0
2014-Nov-15 09:34N 37°58' E 023°35'1 1.0
2014-Nov-15 08:34N 37°57' E 023°36'0 0.0
2014-Nov-15 07:34N 37°57' E 023°36'1 0.1
2014-Nov-14 16:26N 37°58' E 023°35'2 2.7
2014-Nov-14 15:33N 37°55' E 023°34'0 0.0
2014-Nov-14 14:33N 37°55' E 023°34'0 0.2
2014-Nov-14 12:34N 37°55' E 023°34'0 0.0
2014-Nov-14 11:33N 37°55' E 023°34'1 0.7
2014-Nov-14 10:33N 37°55' E 023°33'1 0.6
2014-Nov-14 09:33N 37°55' E 023°34'2 0.2
2014-Nov-13 18:33N 37°58' E 023°35'1 1.3
2014-Nov-13 17:29N 37°58' E 023°36'0 0.0
2014-Nov-13 16:16N 37°58' E 023°36'0 0.0
2014-Nov-13 14:26N 37°58' E 023°36'0 0.0
2014-Nov-13 13:24N 37°58' E 023°36'0 0.0
2014-Nov-13 12:33N 37°58' E 023°36'0 0.0
2014-Nov-13 11:34N 37°58' E 023°36'1 1.1
2014-Nov-13 10:18N 37°58' E 023°35'0 0.0
2014-Nov-13 09:33N 37°58' E 023°35'0 0.0
2014-Nov-13 08:33N 37°58' E 023°35'0 0.0
2014-Nov-13 07:13N 37°58' E 023°35'0 0.0
2014-Nov-13 06:33N 37°58' E 023°35'4 2.7
2014-Nov-13 05:09N 38°01' E 023°35'0 0.0
2014-Nov-13 03:26N 38°01' E 023°35'0 0.0
2014-Nov-13 01:26N 38°01' E 023°35'1 1.0
2014-Nov-13 00:33N 38°02' E 023°36'0 0.0
2014-Nov-12 17:31N 38°02' E 023°36'1 0.8
2014-Nov-12 16:33N 38°01' E 023°35'0 0.1
2014-Nov-12 15:33N 38°02' E 023°35'0 0.4
2014-Nov-12 14:33N 38°02' E 023°35'4 4.4
2014-Nov-12 13:33N 37°57' E 023°34'1 0.7
2014-Nov-12 12:33N 37°57' E 023°35'0 0.0
2014-Nov-12 11:33N 37°57' E 023°35'0 0.0
2014-Nov-12 10:33N 37°57' E 023°35'0 0.0
2014-Nov-12 09:33N 37°57' E 023°35'0 0.0
2014-Nov-12 08:32N 37°57' E 023°35'  

Dump ship's entire track history